sensor_id;sensor_type;location;lat;lon;timestamp;temperature;humidity
57106;DHT22;62662;56.788;23.942;2022-10-16T00:00:58;12.10;99.90
57106;DHT22;62662;56.788;23.942;2022-10-16T00:03:25;12.10;99.90
57106;DHT22;62662;56.788;23.942;2022-10-16T00:05:59;12.00;99.90
57106;DHT22;62662;56.788;23.942;2022-10-16T00:08:27;12.10;99.90
57106;DHT22;62662;56.788;23.942;2022-10-16T00:11:05;12.10;99.90
57106;DHT22;62662;56.788;23.942;2022-10-16T00:13:34;12.10;99.90
57106;DHT22;62662;56.788;23.942;2022-10-16T00:16:02;12.10;99.90
57106;DHT22;62662;56.788;23.942;2022-10-16T00:18:29;12.20;99.90
57106;DHT22;62662;56.788;23.942;2022-10-16T00:21:05;12.10;99.90
57106;DHT22;62662;56.788;23.942;2022-10-16T00:23:33;12.10;99.90
57106;DHT22;62662;56.788;23.942;2022-10-16T00:26:01;12.10;99.90
57106;DHT22;62662;56.788;23.942;2022-10-16T00:28:28;12.00;99.90
57106;DHT22;62662;56.788;23.942;2022-10-16T00:30:56;12.00;99.90
57106;DHT22;62662;56.788;23.942;2022-10-16T00:33:24;12.00;99.90
57106;DHT22;62662;56.788;23.942;2022-10-16T00:35:51;12.00;99.90
57106;DHT22;62662;56.788;23.942;2022-10-16T00:38:18;12.00;99.90
57106;DHT22;62662;56.788;23.942;2022-10-16T00:40:45;12.00;99.90
57106;DHT22;62662;56.788;23.942;2022-10-16T00:43:14;12.00;99.90
57106;DHT22;62662;56.788;23.942;2022-10-16T00:45:59;12.00;99.90
57106;DHT22;62662;56.788;23.942;2022-10-16T00:48:26;12.00;99.90
57106;DHT22;62662;56.788;23.942;2022-10-16T00:50:53;12.10;99.90
57106;DHT22;62662;56.788;23.942;2022-10-16T00:53:21;12.10;99.90
57106;DHT22;62662;56.788;23.942;2022-10-16T00:55:48;12.10;99.90
57106;DHT22;62662;56.788;23.942;2022-10-16T00:58:15;12.10;99.90
57106;DHT22;62662;56.788;23.942;2022-10-16T01:00:42;12.10;99.90
57106;DHT22;62662;56.788;23.942;2022-10-16T01:03:34;12.10;99.90
57106;DHT22;62662;56.788;23.942;2022-10-16T01:11:17;12.00;99.90
57106;DHT22;62662;56.788;23.942;2022-10-16T01:13:50;12.00;99.90
57106;DHT22;62662;56.788;23.942;2022-10-16T01:19:05;11.90;99.90
57106;DHT22;62662;56.788;23.942;2022-10-16T01:21:39;11.90;99.90
57106;DHT22;62662;56.788;23.942;2022-10-16T01:27:28;11.90;99.90
57106;DHT22;62662;56.788;23.942;2022-10-16T01:30:21;11.90;99.90
57106;DHT22;62662;56.788;23.942;2022-10-16T01:32:54;11.90;99.90
57106;DHT22;62662;56.788;23.942;2022-10-16T01:35:32;11.90;99.90
57106;DHT22;62662;56.788;23.942;2022-10-16T01:38:06;12.00;99.90
57106;DHT22;62662;56.788;23.942;2022-10-16T01:40:36;11.90;99.90
57106;DHT22;62662;56.788;23.942;2022-10-16T01:45:35;12.00;99.90
57106;DHT22;62662;56.788;23.942;2022-10-16T01:48:03;12.00;99.90
57106;DHT22;62662;56.788;23.942;2022-10-16T01:50:37;12.00;99.90
57106;DHT22;62662;56.788;23.942;2022-10-16T01:53:08;12.00;99.90
57106;DHT22;62662;56.788;23.942;2022-10-16T01:55:40;12.00;99.90
57106;DHT22;62662;56.788;23.942;2022-10-16T01:58:12;12.10;99.90
57106;DHT22;62662;56.788;23.942;2022-10-16T02:00:42;12.10;99.90
57106;DHT22;62662;56.788;23.942;2022-10-16T02:03:11;12.10;99.90
57106;DHT22;62662;56.788;23.942;2022-10-16T02:08:15;12.00;99.90
57106;DHT22;62662;56.788;23.942;2022-10-16T02:10:42;12.10;99.90
57106;DHT22;62662;56.788;23.942;2022-10-16T02:13:13;12.10;99.90
57106;DHT22;62662;56.788;23.942;2022-10-16T02:15:42;12.10;99.90
57106;DHT22;62662;56.788;23.942;2022-10-16T02:18:10;12.10;99.90
57106;DHT22;62662;56.788;23.942;2022-10-16T02:20:48;12.10;99.90
57106;DHT22;62662;56.788;23.942;2022-10-16T02:23:29;12.20;99.90
57106;DHT22;62662;56.788;23.942;2022-10-16T02:25:59;12.20;99.90
57106;DHT22;62662;56.788;23.942;2022-10-16T02:28:40;12.20;99.90
57106;DHT22;62662;56.788;23.942;2022-10-16T02:31:11;12.20;99.90
57106;DHT22;62662;56.788;23.942;2022-10-16T02:33:40;12.20;99.90
57106;DHT22;62662;56.788;23.942;2022-10-16T02:36:09;12.20;99.90
57106;DHT22;62662;56.788;23.942;2022-10-16T02:38:38;12.30;99.90
57106;DHT22;62662;56.788;23.942;2022-10-16T02:41:06;12.30;99.90
57106;DHT22;62662;56.788;23.942;2022-10-16T02:43:33;12.30;99.90
57106;DHT22;62662;56.788;23.942;2022-10-16T02:46:01;12.30;99.90
57106;DHT22;62662;56.788;23.942;2022-10-16T02:48:28;12.30;99.90
57106;DHT22;62662;56.788;23.942;2022-10-16T02:50:54;12.40;99.90
57106;DHT22;62662;56.788;23.942;2022-10-16T02:53:21;12.40;99.90
57106;DHT22;62662;56.788;23.942;2022-10-16T02:55:48;12.50;99.90
57106;DHT22;62662;56.788;23.942;2022-10-16T02:58:15;12.40;99.90
57106;DHT22;62662;56.788;23.942;2022-10-16T03:00:42;12.50;99.90
57106;DHT22;62662;56.788;23.942;2022-10-16T03:03:09;12.50;99.90
57106;DHT22;62662;56.788;23.942;2022-10-16T03:05:36;12.60;99.90
57106;DHT22;62662;56.788;23.942;2022-10-16T03:08:03;12.60;99.90
57106;DHT22;62662;56.788;23.942;2022-10-16T03:10:30;12.60;99.90
57106;DHT22;62662;56.788;23.942;2022-10-16T03:12:57;12.60;99.90
57106;DHT22;62662;56.788;23.942;2022-10-16T03:15:24;12.60;99.90
57106;DHT22;62662;56.788;23.942;2022-10-16T03:17:52;12.60;99.90
57106;DHT22;62662;56.788;23.942;2022-10-16T03:20:19;12.60;99.90
57106;DHT22;62662;56.788;23.942;2022-10-16T03:22:46;12.70;99.90
57106;DHT22;62662;56.788;23.942;2022-10-16T03:25:13;12.70;99.90
57106;DHT22;62662;56.788;23.942;2022-10-16T03:27:40;12.70;99.90
57106;DHT22;62662;56.788;23.942;2022-10-16T03:30:07;12.70;99.90
57106;DHT22;62662;56.788;23.942;2022-10-16T03:32:34;12.70;99.90
57106;DHT22;62662;56.788;23.942;2022-10-16T03:35:01;12.70;99.90
57106;DHT22;62662;56.788;23.942;2022-10-16T03:37:29;12.70;99.90
57106;DHT22;62662;56.788;23.942;2022-10-16T03:39:55;12.70;99.90
57106;DHT22;62662;56.788;23.942;2022-10-16T03:42:22;12.80;99.90
57106;DHT22;62662;56.788;23.942;2022-10-16T03:44:51;12.80;99.90
57106;DHT22;62662;56.788;23.942;2022-10-16T03:47:18;12.80;99.90
57106;DHT22;62662;56.788;23.942;2022-10-16T03:49:48;12.80;99.90
57106;DHT22;62662;56.788;23.942;2022-10-16T03:52:16;12.80;99.90
57106;DHT22;62662;56.788;23.942;2022-10-16T03:54:43;12.80;99.90
57106;DHT22;62662;56.788;23.942;2022-10-16T03:57:10;12.80;99.90
57106;DHT22;62662;56.788;23.942;2022-10-16T03:59:36;12.80;99.90
57106;DHT22;62662;56.788;23.942;2022-10-16T04:02:03;12.90;99.90
57106;DHT22;62662;56.788;23.942;2022-10-16T04:04:30;12.90;99.90
57106;DHT22;62662;56.788;23.942;2022-10-16T04:06:57;12.80;99.90
57106;DHT22;62662;56.788;23.942;2022-10-16T04:09:24;12.90;99.90
57106;DHT22;62662;56.788;23.942;2022-10-16T04:11:51;13.00;99.90
57106;DHT22;62662;56.788;23.942;2022-10-16T04:14:18;12.90;99.90
57106;DHT22;62662;56.788;23.942;2022-10-16T04:16:45;12.90;99.90
57106;DHT22;62662;56.788;23.942;2022-10-16T04:19:12;12.90;99.90
57106;DHT22;62662;56.788;23.942;2022-10-16T04:21:39;12.90;99.90
57106;DHT22;62662;56.788;23.942;2022-10-16T04:24:06;12.80;99.90
57106;DHT22;62662;56.788;23.942;2022-10-16T04:26:33;12.80;99.90
57106;DHT22;62662;56.788;23.942;2022-10-16T04:29:00;12.80;99.90
57106;DHT22;62662;56.788;23.942;2022-10-16T04:31:27;12.80;99.90
57106;DHT22;62662;56.788;23.942;2022-10-16T04:33:54;12.80;99.90
57106;DHT22;62662;56.788;23.942;2022-10-16T04:36:21;12.70;99.90
57106;DHT22;62662;56.788;23.942;2022-10-16T04:38:54;12.60;99.90
57106;DHT22;62662;56.788;23.942;2022-10-16T04:41:20;12.60;99.90
57106;DHT22;62662;56.788;23.942;2022-10-16T04:43:48;12.60;99.90
57106;DHT22;62662;56.788;23.942;2022-10-16T04:46:15;12.60;99.90
57106;DHT22;62662;56.788;23.942;2022-10-16T04:48:42;12.70;99.90
57106;DHT22;62662;56.788;23.942;2022-10-16T04:51:09;12.70;99.90
57106;DHT22;62662;56.788;23.942;2022-10-16T04:53:37;12.70;99.90
57106;DHT22;62662;56.788;23.942;2022-10-16T04:56:04;12.70;99.90
57106;DHT22;62662;56.788;23.942;2022-10-16T04:58:32;12.70;99.90
57106;DHT22;62662;56.788;23.942;2022-10-16T05:01:00;12.80;99.90
57106;DHT22;62662;56.788;23.942;2022-10-16T05:03:27;12.80;99.90
57106;DHT22;62662;56.788;23.942;2022-10-16T05:05:54;12.70;99.90
57106;DHT22;62662;56.788;23.942;2022-10-16T05:08:21;12.70;99.90
57106;DHT22;62662;56.788;23.942;2022-10-16T05:10:48;12.70;99.90
57106;DHT22;62662;56.788;23.942;2022-10-16T05:13:15;12.70;99.90
57106;DHT22;62662;56.788;23.942;2022-10-16T05:15:42;12.80;99.90
57106;DHT22;62662;56.788;23.942;2022-10-16T05:18:13;12.80;99.90
57106;DHT22;62662;56.788;23.942;2022-10-16T05:20:41;12.80;99.90
57106;DHT22;62662;56.788;23.942;2022-10-16T05:23:09;12.80;99.90
57106;DHT22;62662;56.788;23.942;2022-10-16T05:25:37;12.90;99.90
57106;DHT22;62662;56.788;23.942;2022-10-16T05:28:04;12.80;99.90
57106;DHT22;62662;56.788;23.942;2022-10-16T05:30:31;12.90;99.90
57106;DHT22;62662;56.788;23.942;2022-10-16T05:32:58;13.00;99.90
57106;DHT22;62662;56.788;23.942;2022-10-16T05:35:26;12.90;99.90
57106;DHT22;62662;56.788;23.942;2022-10-16T05:37:53;12.90;99.90
57106;DHT22;62662;56.788;23.942;2022-10-16T05:40:20;12.90;99.90
57106;DHT22;62662;56.788;23.942;2022-10-16T05:42:47;13.00;99.90
57106;DHT22;62662;56.788;23.942;2022-10-16T05:45:14;13.00;99.90
57106;DHT22;62662;56.788;23.942;2022-10-16T05:47:41;13.10;99.90
57106;DHT22;62662;56.788;23.942;2022-10-16T05:50:09;13.00;99.90
57106;DHT22;62662;56.788;23.942;2022-10-16T05:52:36;13.10;99.90
57106;DHT22;62662;56.788;23.942;2022-10-16T05:55:03;13.10;99.90
57106;DHT22;62662;56.788;23.942;2022-10-16T05:57:30;13.10;99.90
57106;DHT22;62662;56.788;23.942;2022-10-16T05:59:57;13.20;99.90
57106;DHT22;62662;56.788;23.942;2022-10-16T06:02:24;13.20;99.90
57106;DHT22;62662;56.788;23.942;2022-10-16T06:04:52;13.20;99.90
57106;DHT22;62662;56.788;23.942;2022-10-16T06:07:22;13.20;99.90
57106;DHT22;62662;56.788;23.942;2022-10-16T06:09:51;13.30;99.90
57106;DHT22;62662;56.788;23.942;2022-10-16T06:12:19;13.30;99.90
57106;DHT22;62662;56.788;23.942;2022-10-16T06:14:46;13.30;99.90
57106;DHT22;62662;56.788;23.942;2022-10-16T06:17:14;13.30;99.90
57106;DHT22;62662;56.788;23.942;2022-10-16T06:19:41;13.30;99.90
57106;DHT22;62662;56.788;23.942;2022-10-16T06:22:09;13.30;99.90
57106;DHT22;62662;56.788;23.942;2022-10-16T06:24:36;13.40;99.90
57106;DHT22;62662;56.788;23.942;2022-10-16T06:27:04;13.40;99.90
57106;DHT22;62662;56.788;23.942;2022-10-16T06:29:31;13.40;99.90
57106;DHT22;62662;56.788;23.942;2022-10-16T06:31:58;13.40;99.90
57106;DHT22;62662;56.788;23.942;2022-10-16T06:34:25;13.50;99.90
57106;DHT22;62662;56.788;23.942;2022-10-16T06:36:52;13.50;99.90
57106;DHT22;62662;56.788;23.942;2022-10-16T06:39:20;13.50;99.90
57106;DHT22;62662;56.788;23.942;2022-10-16T06:41:47;13.50;99.90
57106;DHT22;62662;56.788;23.942;2022-10-16T06:44:15;13.60;99.90
57106;DHT22;62662;56.788;23.942;2022-10-16T06:46:42;13.60;99.90
57106;DHT22;62662;56.788;23.942;2022-10-16T06:49:09;13.50;99.90
57106;DHT22;62662;56.788;23.942;2022-10-16T06:51:37;13.50;99.90
57106;DHT22;62662;56.788;23.942;2022-10-16T06:54:10;13.50;99.90
57106;DHT22;62662;56.788;23.942;2022-10-16T06:56:37;13.60;99.90
57106;DHT22;62662;56.788;23.942;2022-10-16T06:59:05;13.60;99.90
57106;DHT22;62662;56.788;23.942;2022-10-16T07:01:32;13.60;99.90
57106;DHT22;62662;56.788;23.942;2022-10-16T07:04:00;13.60;99.90
57106;DHT22;62662;56.788;23.942;2022-10-16T07:06:31;13.70;99.90
57106;DHT22;62662;56.788;23.942;2022-10-16T07:09:02;13.70;99.90
57106;DHT22;62662;56.788;23.942;2022-10-16T07:11:30;13.70;99.90
57106;DHT22;62662;56.788;23.942;2022-10-16T07:13:57;13.70;99.90
57106;DHT22;62662;56.788;23.942;2022-10-16T07:16:29;13.70;99.90
57106;DHT22;62662;56.788;23.942;2022-10-16T07:18:59;13.70;99.90
57106;DHT22;62662;56.788;23.942;2022-10-16T07:21:29;13.70;99.90
57106;DHT22;62662;56.788;23.942;2022-10-16T07:23:59;13.80;99.90
57106;DHT22;62662;56.788;23.942;2022-10-16T07:26:30;13.70;99.90
57106;DHT22;62662;56.788;23.942;2022-10-16T07:28:58;13.80;99.90
57106;DHT22;62662;56.788;23.942;2022-10-16T07:31:25;13.70;99.90
57106;DHT22;62662;56.788;23.942;2022-10-16T07:33:53;13.70;99.90
57106;DHT22;62662;56.788;23.942;2022-10-16T07:36:21;13.80;99.90
57106;DHT22;62662;56.788;23.942;2022-10-16T07:38:49;13.80;99.90
57106;DHT22;62662;56.788;23.942;2022-10-16T07:41:21;13.80;99.90
57106;DHT22;62662;56.788;23.942;2022-10-16T07:43:50;13.80;99.90
57106;DHT22;62662;56.788;23.942;2022-10-16T07:46:19;13.80;99.90
57106;DHT22;62662;56.788;23.942;2022-10-16T07:48:48;13.90;99.90
57106;DHT22;62662;56.788;23.942;2022-10-16T07:51:17;13.90;99.90
57106;DHT22;62662;56.788;23.942;2022-10-16T07:53:45;14.00;99.90
57106;DHT22;62662;56.788;23.942;2022-10-16T07:56:15;14.00;99.90
57106;DHT22;62662;56.788;23.942;2022-10-16T07:58:43;14.10;99.90
57106;DHT22;62662;56.788;23.942;2022-10-16T08:01:13;14.20;99.90
57106;DHT22;62662;56.788;23.942;2022-10-16T08:03:44;14.30;99.90
57106;DHT22;62662;56.788;23.942;2022-10-16T08:06:14;14.30;99.90
57106;DHT22;62662;56.788;23.942;2022-10-16T08:08:41;14.30;99.90
57106;DHT22;62662;56.788;23.942;2022-10-16T08:11:08;14.20;99.90
57106;DHT22;62662;56.788;23.942;2022-10-16T08:13:35;14.30;99.90
57106;DHT22;62662;56.788;23.942;2022-10-16T08:16:03;14.40;99.90
57106;DHT22;62662;56.788;23.942;2022-10-16T08:18:36;14.40;99.90
57106;DHT22;62662;56.788;23.942;2022-10-16T08:21:03;14.50;99.90
57106;DHT22;62662;56.788;23.942;2022-10-16T08:23:33;14.60;99.90
57106;DHT22;62662;56.788;23.942;2022-10-16T08:26:05;14.50;99.90
57106;DHT22;62662;56.788;23.942;2022-10-16T08:28:32;14.60;99.90
57106;DHT22;62662;56.788;23.942;2022-10-16T08:31:08;14.50;99.90
57106;DHT22;62662;56.788;23.942;2022-10-16T08:33:36;14.40;99.90
57106;DHT22;62662;56.788;23.942;2022-10-16T08:36:05;14.40;99.90
57106;DHT22;62662;56.788;23.942;2022-10-16T08:38:33;14.40;99.90
57106;DHT22;62662;56.788;23.942;2022-10-16T08:43:53;14.40;99.90
57106;DHT22;62662;56.788;23.942;2022-10-16T08:46:36;14.50;99.90
57106;DHT22;62662;56.788;23.942;2022-10-16T08:49:13;14.50;99.90
57106;DHT22;62662;56.788;23.942;2022-10-16T08:51:41;14.50;99.90
57106;DHT22;62662;56.788;23.942;2022-10-16T08:56:43;14.50;99.90
57106;DHT22;62662;56.788;23.942;2022-10-16T08:59:11;14.50;99.90
57106;DHT22;62662;56.788;23.942;2022-10-16T09:01:46;14.50;99.90
57106;DHT22;62662;56.788;23.942;2022-10-16T09:16:45;14.70;99.90
57106;DHT22;62662;56.788;23.942;2022-10-16T09:21:46;14.90;99.90
57106;DHT22;62662;56.788;23.942;2022-10-16T09:24:19;14.80;99.90
57106;DHT22;62662;56.788;23.942;2022-10-16T09:26:51;14.80;99.90
57106;DHT22;62662;56.788;23.942;2022-10-16T09:29:20;14.80;99.90
57106;DHT22;62662;56.788;23.942;2022-10-16T09:31:48;14.80;99.90
57106;DHT22;62662;56.788;23.942;2022-10-16T09:34:24;14.80;99.90
57106;DHT22;62662;56.788;23.942;2022-10-16T09:36:57;14.70;99.90
57106;DHT22;62662;56.788;23.942;2022-10-16T09:39:25;14.70;99.90
57106;DHT22;62662;56.788;23.942;2022-10-16T09:41:53;14.70;99.90
57106;DHT22;62662;56.788;23.942;2022-10-16T09:44:29;14.70;99.90
57106;DHT22;62662;56.788;23.942;2022-10-16T09:47:04;14.70;99.90
57106;DHT22;62662;56.788;23.942;2022-10-16T09:49:32;14.70;99.90
57106;DHT22;62662;56.788;23.942;2022-10-16T09:52:15;14.80;99.90
57106;DHT22;62662;56.788;23.942;2022-10-16T09:54:58;14.90;99.90
57106;DHT22;62662;56.788;23.942;2022-10-16T09:57:25;14.80;99.90
57106;DHT22;62662;56.788;23.942;2022-10-16T09:59:55;14.80;99.90
57106;DHT22;62662;56.788;23.942;2022-10-16T10:02:31;14.90;99.90
57106;DHT22;62662;56.788;23.942;2022-10-16T10:05:01;14.90;99.90
57106;DHT22;62662;56.788;23.942;2022-10-16T10:07:33;14.90;99.90
57106;DHT22;62662;56.788;23.942;2022-10-16T10:10:05;14.90;99.90
57106;DHT22;62662;56.788;23.942;2022-10-16T10:12:33;14.80;99.90
57106;DHT22;62662;56.788;23.942;2022-10-16T10:15:14;14.80;99.90
57106;DHT22;62662;56.788;23.942;2022-10-16T10:17:56;14.90;99.90
57106;DHT22;62662;56.788;23.942;2022-10-16T10:22:58;15.10;99.90
57106;DHT22;62662;56.788;23.942;2022-10-16T10:36:40;15.10;99.90
57106;DHT22;62662;56.788;23.942;2022-10-16T10:39:36;15.20;99.90
57106;DHT22;62662;56.788;23.942;2022-10-16T10:42:24;15.20;99.90
57106;DHT22;62662;56.788;23.942;2022-10-16T10:50:47;15.20;99.90
57106;DHT22;62662;56.788;23.942;2022-10-16T10:58:44;15.30;99.90
57106;DHT22;62662;56.788;23.942;2022-10-16T11:01:21;15.30;99.90
57106;DHT22;62662;56.788;23.942;2022-10-16T11:04:07;15.20;99.90
57106;DHT22;62662;56.788;23.942;2022-10-16T11:06:46;15.20;99.90
57106;DHT22;62662;56.788;23.942;2022-10-16T11:09:28;15.20;99.90
57106;DHT22;62662;56.788;23.942;2022-10-16T11:14:38;15.20;99.90
57106;DHT22;62662;56.788;23.942;2022-10-16T11:17:11;15.20;99.90
57106;DHT22;62662;56.788;23.942;2022-10-16T11:20:00;15.20;99.90
57106;DHT22;62662;56.788;23.942;2022-10-16T11:22:44;15.10;99.90
57106;DHT22;62662;56.788;23.942;2022-10-16T11:25:20;15.10;99.90
57106;DHT22;62662;56.788;23.942;2022-10-16T11:28:27;15.10;99.90
57106;DHT22;62662;56.788;23.942;2022-10-16T11:31:04;15.10;99.90
57106;DHT22;62662;56.788;23.942;2022-10-16T11:33:43;15.10;99.90
57106;DHT22;62662;56.788;23.942;2022-10-16T11:36:35;15.10;99.90
57106;DHT22;62662;56.788;23.942;2022-10-16T11:39:21;15.10;99.90
57106;DHT22;62662;56.788;23.942;2022-10-16T11:42:16;15.10;99.90
57106;DHT22;62662;56.788;23.942;2022-10-16T11:48:20;15.20;99.90
57106;DHT22;62662;56.788;23.942;2022-10-16T11:50:51;15.10;99.90
57106;DHT22;62662;56.788;23.942;2022-10-16T11:55:49;15.20;99.90
57106;DHT22;62662;56.788;23.942;2022-10-16T11:58:27;15.20;99.90
57106;DHT22;62662;56.788;23.942;2022-10-16T12:01:17;15.20;99.90
57106;DHT22;62662;56.788;23.942;2022-10-16T12:06:53;15.30;99.90
57106;DHT22;62662;56.788;23.942;2022-10-16T12:09:31;15.20;99.90
57106;DHT22;62662;56.788;23.942;2022-10-16T12:11:59;15.30;99.90
57106;DHT22;62662;56.788;23.942;2022-10-16T12:17:35;15.30;99.90
57106;DHT22;62662;56.788;23.942;2022-10-16T12:25:37;15.40;99.90
57106;DHT22;62662;56.788;23.942;2022-10-16T12:31:10;15.30;99.90
57106;DHT22;62662;56.788;23.942;2022-10-16T12:33:57;15.30;99.90
57106;DHT22;62662;56.788;23.942;2022-10-16T12:36:33;15.20;99.90
57106;DHT22;62662;56.788;23.942;2022-10-16T12:39:02;15.20;99.90
57106;DHT22;62662;56.788;23.942;2022-10-16T12:41:31;15.20;99.90
57106;DHT22;62662;56.788;23.942;2022-10-16T12:43:59;15.20;99.90
57106;DHT22;62662;56.788;23.942;2022-10-16T12:51:41;15.30;99.90
57106;DHT22;62662;56.788;23.942;2022-10-16T12:54:12;15.30;99.90
57106;DHT22;62662;56.788;23.942;2022-10-16T13:02:24;15.30;99.90
57106;DHT22;62662;56.788;23.942;2022-10-16T13:29:00;14.90;99.90
57106;DHT22;62662;56.788;23.942;2022-10-16T13:31:30;14.80;99.90
57106;DHT22;62662;56.788;23.942;2022-10-16T13:33:59;14.70;99.90
57106;DHT22;62662;56.788;23.942;2022-10-16T13:36:28;14.70;99.90
57106;DHT22;62662;56.788;23.942;2022-10-16T13:39:06;14.70;99.90
57106;DHT22;62662;56.788;23.942;2022-10-16T13:41:37;14.70;99.90
57106;DHT22;62662;56.788;23.942;2022-10-16T13:44:09;14.60;99.90
57106;DHT22;62662;56.788;23.942;2022-10-16T13:46:39;14.60;99.90
57106;DHT22;62662;56.788;23.942;2022-10-16T13:49:17;14.60;99.90
57106;DHT22;62662;56.788;23.942;2022-10-16T13:51:57;14.60;99.90
57106;DHT22;62662;56.788;23.942;2022-10-16T13:54:27;14.70;99.90
57106;DHT22;62662;56.788;23.942;2022-10-16T13:57:04;14.70;99.90
57106;DHT22;62662;56.788;23.942;2022-10-16T13:59:51;14.70;99.90
57106;DHT22;62662;56.788;23.942;2022-10-16T14:04:50;14.70;99.90
57106;DHT22;62662;56.788;23.942;2022-10-16T14:07:24;14.80;99.90
57106;DHT22;62662;56.788;23.942;2022-10-16T14:09:54;14.80;99.90
57106;DHT22;62662;56.788;23.942;2022-10-16T14:12:23;14.80;99.90
57106;DHT22;62662;56.788;23.942;2022-10-16T14:14:55;14.70;99.90
57106;DHT22;62662;56.788;23.942;2022-10-16T14:17:32;14.80;99.90
57106;DHT22;62662;56.788;23.942;2022-10-16T14:20:05;14.80;99.90
57106;DHT22;62662;56.788;23.942;2022-10-16T14:22:40;14.80;99.90
57106;DHT22;62662;56.788;23.942;2022-10-16T14:25:23;14.80;99.90
57106;DHT22;62662;56.788;23.942;2022-10-16T14:28:20;14.80;99.90
57106;DHT22;62662;56.788;23.942;2022-10-16T14:31:00;14.80;99.90
57106;DHT22;62662;56.788;23.942;2022-10-16T14:33:31;14.80;99.90
57106;DHT22;62662;56.788;23.942;2022-10-16T14:36:13;14.80;99.90
57106;DHT22;62662;56.788;23.942;2022-10-16T14:38:42;14.80;99.90
57106;DHT22;62662;56.788;23.942;2022-10-16T14:41:11;14.80;99.90
57106;DHT22;62662;56.788;23.942;2022-10-16T14:43:41;14.70;99.90
57106;DHT22;62662;56.788;23.942;2022-10-16T14:46:17;14.60;99.90
57106;DHT22;62662;56.788;23.942;2022-10-16T14:48:51;14.40;99.90
57106;DHT22;62662;56.788;23.942;2022-10-16T14:51:22;14.40;99.90
57106;DHT22;62662;56.788;23.942;2022-10-16T14:53:49;14.40;99.90
57106;DHT22;62662;56.788;23.942;2022-10-16T14:56:22;14.40;99.90
57106;DHT22;62662;56.788;23.942;2022-10-16T14:58:55;14.40;99.90
57106;DHT22;62662;56.788;23.942;2022-10-16T15:01:26;14.40;99.90
57106;DHT22;62662;56.788;23.942;2022-10-16T15:03:54;14.40;99.90
57106;DHT22;62662;56.788;23.942;2022-10-16T15:06:22;14.40;99.90
57106;DHT22;62662;56.788;23.942;2022-10-16T15:08:49;14.30;99.90
57106;DHT22;62662;56.788;23.942;2022-10-16T15:11:18;14.30;99.90
57106;DHT22;62662;56.788;23.942;2022-10-16T15:13:46;14.20;99.90
57106;DHT22;62662;56.788;23.942;2022-10-16T15:16:15;14.20;99.90
57106;DHT22;62662;56.788;23.942;2022-10-16T15:18:43;14.20;99.90
57106;DHT22;62662;56.788;23.942;2022-10-16T15:21:37;14.20;99.90
57106;DHT22;62662;56.788;23.942;2022-10-16T15:24:09;14.20;99.90
57106;DHT22;62662;56.788;23.942;2022-10-16T15:26:42;14.30;99.90
57106;DHT22;62662;56.788;23.942;2022-10-16T15:29:09;14.30;99.90
57106;DHT22;62662;56.788;23.942;2022-10-16T15:31:37;14.20;99.90
57106;DHT22;62662;56.788;23.942;2022-10-16T15:34:05;14.30;99.90
57106;DHT22;62662;56.788;23.942;2022-10-16T15:36:37;14.30;99.90
57106;DHT22;62662;56.788;23.942;2022-10-16T15:39:18;14.30;99.90
57106;DHT22;62662;56.788;23.942;2022-10-16T15:41:47;14.40;99.90
57106;DHT22;62662;56.788;23.942;2022-10-16T15:44:18;14.40;99.90
57106;DHT22;62662;56.788;23.942;2022-10-16T15:46:46;14.40;99.90
57106;DHT22;62662;56.788;23.942;2022-10-16T15:49:14;14.40;99.90
57106;DHT22;62662;56.788;23.942;2022-10-16T15:51:42;14.40;99.90
57106;DHT22;62662;56.788;23.942;2022-10-16T15:54:10;14.50;99.90
57106;DHT22;62662;56.788;23.942;2022-10-16T15:56:37;14.50;99.90
57106;DHT22;62662;56.788;23.942;2022-10-16T15:59:05;14.50;99.90
57106;DHT22;62662;56.788;23.942;2022-10-16T16:01:34;14.50;99.90
57106;DHT22;62662;56.788;23.942;2022-10-16T16:04:02;14.50;99.90
57106;DHT22;62662;56.788;23.942;2022-10-16T16:06:45;14.50;99.90
57106;DHT22;62662;56.788;23.942;2022-10-16T16:09:14;14.60;99.90
57106;DHT22;62662;56.788;23.942;2022-10-16T16:11:41;14.60;99.90
57106;DHT22;62662;56.788;23.942;2022-10-16T16:14:13;14.50;99.90
57106;DHT22;62662;56.788;23.942;2022-10-16T16:16:41;14.60;99.90
57106;DHT22;62662;56.788;23.942;2022-10-16T16:19:10;14.60;99.90
57106;DHT22;62662;56.788;23.942;2022-10-16T16:21:39;14.60;99.90
57106;DHT22;62662;56.788;23.942;2022-10-16T16:24:06;14.60;99.90
57106;DHT22;62662;56.788;23.942;2022-10-16T16:26:36;14.60;99.90
57106;DHT22;62662;56.788;23.942;2022-10-16T16:29:06;14.60;99.90
57106;DHT22;62662;56.788;23.942;2022-10-16T16:31:34;14.60;99.90
57106;DHT22;62662;56.788;23.942;2022-10-16T16:34:02;14.60;99.90
57106;DHT22;62662;56.788;23.942;2022-10-16T16:36:29;14.60;99.90
57106;DHT22;62662;56.788;23.942;2022-10-16T16:38:57;14.60;99.90
57106;DHT22;62662;56.788;23.942;2022-10-16T16:41:27;14.70;99.90
57106;DHT22;62662;56.788;23.942;2022-10-16T16:44:00;14.70;99.90
57106;DHT22;62662;56.788;23.942;2022-10-16T16:46:29;14.70;99.90
57106;DHT22;62662;56.788;23.942;2022-10-16T16:48:58;14.60;99.90
57106;DHT22;62662;56.788;23.942;2022-10-16T16:51:26;14.70;99.90
57106;DHT22;62662;56.788;23.942;2022-10-16T16:53:54;14.70;99.90
57106;DHT22;62662;56.788;23.942;2022-10-16T16:56:24;14.70;99.90
57106;DHT22;62662;56.788;23.942;2022-10-16T16:58:55;14.70;99.90
57106;DHT22;62662;56.788;23.942;2022-10-16T17:01:25;14.70;99.90
57106;DHT22;62662;56.788;23.942;2022-10-16T17:03:55;14.70;99.90
57106;DHT22;62662;56.788;23.942;2022-10-16T17:06:26;14.70;99.90
57106;DHT22;62662;56.788;23.942;2022-10-16T17:08:54;14.70;99.90
57106;DHT22;62662;56.788;23.942;2022-10-16T17:11:24;14.70;99.90
57106;DHT22;62662;56.788;23.942;2022-10-16T17:13:54;14.70;99.90
57106;DHT22;62662;56.788;23.942;2022-10-16T17:16:25;14.70;99.90
57106;DHT22;62662;56.788;23.942;2022-10-16T17:18:53;14.80;99.90
57106;DHT22;62662;56.788;23.942;2022-10-16T17:21:21;14.80;99.90
57106;DHT22;62662;56.788;23.942;2022-10-16T17:23:51;14.80;99.90
57106;DHT22;62662;56.788;23.942;2022-10-16T17:26:19;14.80;99.90
57106;DHT22;62662;56.788;23.942;2022-10-16T17:28:51;14.80;99.90
57106;DHT22;62662;56.788;23.942;2022-10-16T17:31:28;14.70;99.90
57106;DHT22;62662;56.788;23.942;2022-10-16T17:34:01;14.70;99.90
57106;DHT22;62662;56.788;23.942;2022-10-16T17:36:30;14.70;99.90
57106;DHT22;62662;56.788;23.942;2022-10-16T17:39:00;14.70;99.90